sensor_id;sensor_type;location;lat;lon;timestamp;pressure;altitude;pressure_sealevel;temperature;humidity
13604;BME280;24578;48.264;11.436;2022-12-24T00:02:18;95574.28;;;9.05;100.00
13604;BME280;24578;48.264;11.436;2022-12-24T00:05:19;95583.34;;;9.10;100.00
13604;BME280;24578;48.264;11.436;2022-12-24T00:08:19;95589.53;;;9.08;100.00
13604;BME280;24578;48.264;11.436;2022-12-24T00:11:20;95609.16;;;9.10;100.00
13604;BME280;24578;48.264;11.436;2022-12-24T00:14:20;95597.63;;;9.14;100.00
13604;BME280;24578;48.264;11.436;2022-12-24T00:17:21;95585.66;;;9.13;100.00
13604;BME280;24578;48.264;11.436;2022-12-24T00:20:22;95591.91;;;8.99;100.00
13604;BME280;24578;48.264;11.436;2022-12-24T00:23:24;95589.41;;;8.87;100.00
13604;BME280;24578;48.264;11.436;2022-12-24T00:26:24;95594.66;;;8.74;100.00
13604;BME280;24578;48.264;11.436;2022-12-24T00:29:25;95582.84;;;8.71;100.00
13604;BME280;24578;48.264;11.436;2022-12-24T00:32:25;95580.50;;;8.79;100.00
13604;BME280;24578;48.264;11.436;2022-12-24T00:35:26;95581.09;;;8.83;100.00
13604;BME280;24578;48.264;11.436;2022-12-24T00:38:26;95582.75;;;8.84;100.00
13604;BME280;24578;48.264;11.436;2022-12-24T00:41:27;95591.19;;;8.86;100.00
13604;BME280;24578;48.264;11.436;2022-12-24T00:44:31;95609.34;;;8.73;100.00
13604;BME280;24578;48.264;11.436;2022-12-24T00:47:31;95622.03;;;8.76;100.00
13604;BME280;24578;48.264;11.436;2022-12-24T00:50:32;95619.66;;;8.73;100.00
13604;BME280;24578;48.264;11.436;2022-12-24T00:53:32;95614.25;;;8.65;100.00
13604;BME280;24578;48.264;11.436;2022-12-24T00:56:33;95611.34;;;8.70;100.00
13604;BME280;24578;48.264;11.436;2022-12-24T00:59:34;95616.38;;;8.71;100.00
13604;BME280;24578;48.264;11.436;2022-12-24T01:02:34;95616.34;;;8.60;100.00
13604;BME280;24578;48.264;11.436;2022-12-24T01:05:35;95630.06;;;8.60;100.00
13604;BME280;24578;48.264;11.436;2022-12-24T01:08:36;95625.69;;;8.49;100.00
13604;BME280;24578;48.264;11.436;2022-12-24T01:11:37;95634.69;;;8.44;100.00
13604;BME280;24578;48.264;11.436;2022-12-24T01:14:37;95630.69;;;8.40;100.00
13604;BME280;24578;48.264;11.436;2022-12-24T01:17:39;95633.50;;;8.36;100.00
13604;BME280;24578;48.264;11.436;2022-12-24T01:20:39;95643.34;;;8.43;100.00
13604;BME280;24578;48.264;11.436;2022-12-24T01:23:40;95639.97;;;8.42;100.00
13604;BME280;24578;48.264;11.436;2022-12-24T01:26:42;95643.47;;;8.41;100.00
13604;BME280;24578;48.264;11.436;2022-12-24T01:29:42;95658.44;;;8.36;100.00
13604;BME280;24578;48.264;11.436;2022-12-24T01:32:43;95661.91;;;8.23;100.00
13604;BME280;24578;48.264;11.436;2022-12-24T01:35:43;95656.75;;;8.23;100.00
13604;BME280;24578;48.264;11.436;2022-12-24T01:38:44;95664.13;;;8.17;100.00
13604;BME280;24578;48.264;11.436;2022-12-24T01:41:44;95665.03;;;8.16;100.00
13604;BME280;24578;48.264;11.436;2022-12-24T01:45:42;95669.66;;;8.23;100.00
13604;BME280;24578;48.264;11.436;2022-12-24T01:48:52;95674.31;;;8.18;100.00
13604;BME280;24578;48.264;11.436;2022-12-24T01:52:40;95684.16;;;8.13;100.00
13604;BME280;24578;48.264;11.436;2022-12-24T01:55:24;95684.88;;;8.15;100.00
13604;BME280;24578;48.264;11.436;2022-12-24T01:58:26;95685.06;;;8.12;100.00
13604;BME280;24578;48.264;11.436;2022-12-24T02:01:27;95692.69;;;8.14;100.00
13604;BME280;24578;48.264;11.436;2022-12-24T02:04:39;95684.09;;;8.02;100.00
13604;BME280;24578;48.264;11.436;2022-12-24T02:07:42;95688.94;;;7.93;100.00
13604;BME280;24578;48.264;11.436;2022-12-24T02:10:45;95693.56;;;8.01;100.00
13604;BME280;24578;48.264;11.436;2022-12-24T02:13:52;95699.66;;;8.00;100.00
13604;BME280;24578;48.264;11.436;2022-12-24T02:17:02;95705.53;;;7.89;100.00
13604;BME280;24578;48.264;11.436;2022-12-24T02:24:01;95703.81;;;7.90;100.00
13604;BME280;24578;48.264;11.436;2022-12-24T02:30:44;95702.00;;;8.03;100.00
13604;BME280;24578;48.264;11.436;2022-12-24T02:37:32;95721.31;;;7.98;100.00
13604;BME280;24578;48.264;11.436;2022-12-24T02:40:45;95729.59;;;7.90;100.00
13604;BME280;24578;48.264;11.436;2022-12-24T02:43:50;95726.88;;;7.91;100.00
13604;BME280;24578;48.264;11.436;2022-12-24T02:46:54;95730.91;;;7.96;100.00
13604;BME280;24578;48.264;11.436;2022-12-24T02:49:55;95738.69;;;8.07;100.00
13604;BME280;24578;48.264;11.436;2022-12-24T02:52:56;95747.47;;;8.04;100.00
13604;BME280;24578;48.264;11.436;2022-12-24T03:05:59;95722.88;;;8.25;100.00
13604;BME280;24578;48.264;11.436;2022-12-24T03:09:11;95731.97;;;8.17;100.00
13604;BME280;24578;48.264;11.436;2022-12-24T03:12:20;95728.75;;;8.27;100.00
13604;BME280;24578;48.264;11.436;2022-12-24T03:15:25;95745.94;;;8.26;100.00
13604;BME280;24578;48.264;11.436;2022-12-24T03:18:28;95752.50;;;8.19;100.00
13604;BME280;24578;48.264;11.436;2022-12-24T03:21:34;95749.41;;;8.14;100.00
13604;BME280;24578;48.264;11.436;2022-12-24T03:24:36;95757.84;;;8.16;100.00
13604;BME280;24578;48.264;11.436;2022-12-24T03:27:37;95750.72;;;8.19;100.00
13604;BME280;24578;48.264;11.436;2022-12-24T03:30:40;95753.41;;;8.18;100.00
13604;BME280;24578;48.264;11.436;2022-12-24T03:33:41;95747.91;;;8.35;100.00
13604;BME280;24578;48.264;11.436;2022-12-24T03:36:42;95753.81;;;8.25;100.00
13604;BME280;24578;48.264;11.436;2022-12-24T03:39:43;95767.09;;;8.31;100.00
13604;BME280;24578;48.264;11.436;2022-12-24T03:42:43;95774.97;;;8.17;100.00
13604;BME280;24578;48.264;11.436;2022-12-24T03:45:44;95775.38;;;8.23;100.00
13604;BME280;24578;48.264;11.436;2022-12-24T03:48:44;95775.75;;;8.30;100.00
13604;BME280;24578;48.264;11.436;2022-12-24T03:51:45;95762.97;;;8.29;100.00
13604;BME280;24578;48.264;11.436;2022-12-24T03:54:45;95760.34;;;8.17;100.00
13604;BME280;24578;48.264;11.436;2022-12-24T03:57:46;95774.56;;;8.10;100.00
13604;BME280;24578;48.264;11.436;2022-12-24T04:00:46;95786.94;;;8.18;100.00
13604;BME280;24578;48.264;11.436;2022-12-24T04:03:47;95784.09;;;8.10;100.00
13604;BME280;24578;48.264;11.436;2022-12-24T04:06:48;95791.69;;;8.11;100.00
13604;BME280;24578;48.264;11.436;2022-12-24T04:09:48;95793.13;;;8.15;100.00
13604;BME280;24578;48.264;11.436;2022-12-24T04:12:49;95801.59;;;8.17;100.00
13604;BME280;24578;48.264;11.436;2022-12-24T04:16:02;95814.19;;;8.09;100.00
13604;BME280;24578;48.264;11.436;2022-12-24T04:19:03;95816.16;;;8.05;100.00
13604;BME280;24578;48.264;11.436;2022-12-24T04:22:03;95820.06;;;8.11;100.00
13604;BME280;24578;48.264;11.436;2022-12-24T04:25:04;95822.75;;;8.10;100.00
13604;BME280;24578;48.264;11.436;2022-12-24T04:28:05;95821.38;;;8.17;100.00
13604;BME280;24578;48.264;11.436;2022-12-24T04:31:10;95831.38;;;8.21;100.00
13604;BME280;24578;48.264;11.436;2022-12-24T04:34:11;95840.63;;;8.37;100.00
13604;BME280;24578;48.264;11.436;2022-12-24T04:37:11;95831.09;;;8.63;100.00
13604;BME280;24578;48.264;11.436;2022-12-24T04:40:12;95824.44;;;8.48;100.00
13604;BME280;24578;48.264;11.436;2022-12-24T04:43:13;95827.72;;;8.50;100.00
13604;BME280;24578;48.264;11.436;2022-12-24T04:46:19;95843.97;;;8.63;100.00
13604;BME280;24578;48.264;11.436;2022-12-24T04:49:20;95851.66;;;8.52;100.00
13604;BME280;24578;48.264;11.436;2022-12-24T04:52:20;95852.69;;;8.49;100.00
13604;BME280;24578;48.264;11.436;2022-12-24T04:55:21;95863.97;;;8.48;100.00
13604;BME280;24578;48.264;11.436;2022-12-24T04:58:21;95857.66;;;8.40;100.00
13604;BME280;24578;48.264;11.436;2022-12-24T05:01:25;95867.66;;;8.44;100.00
13604;BME280;24578;48.264;11.436;2022-12-24T05:04:26;95881.47;;;8.43;100.00
13604;BME280;24578;48.264;11.436;2022-12-24T05:07:27;95871.25;;;8.42;100.00
13604;BME280;24578;48.264;11.436;2022-12-24T05:10:28;95868.91;;;8.38;100.00
13604;BME280;24578;48.264;11.436;2022-12-24T05:13:28;95874.75;;;8.53;100.00
13604;BME280;24578;48.264;11.436;2022-12-24T05:16:29;95872.09;;;8.55;100.00
13604;BME280;24578;48.264;11.436;2022-12-24T05:19:29;95870.66;;;8.51;100.00
13604;BME280;24578;48.264;11.436;2022-12-24T05:22:30;95883.00;;;8.46;100.00
13604;BME280;24578;48.264;11.436;2022-12-24T05:25:49;95893.31;;;8.46;100.00
13604;BME280;24578;48.264;11.436;2022-12-24T05:29:09;95883.75;;;8.35;100.00
13604;BME280;24578;48.264;11.436;2022-12-24T05:32:11;95885.78;;;8.43;100.00
13604;BME280;24578;48.264;11.436;2022-12-24T05:35:12;95891.28;;;8.38;100.00
13604;BME280;24578;48.264;11.436;2022-12-24T05:38:13;95891.28;;;8.38;100.00
13604;BME280;24578;48.264;11.436;2022-12-24T05:41:13;95907.88;;;8.34;100.00
13604;BME280;24578;48.264;11.436;2022-12-24T05:44:14;95908.50;;;8.37;100.00
13604;BME280;24578;48.264;11.436;2022-12-24T05:47:15;95909.25;;;8.40;100.00
13604;BME280;24578;48.264;11.436;2022-12-24T05:50:16;95911.69;;;8.41;100.00
13604;BME280;24578;48.264;11.436;2022-12-24T05:53:16;95912.09;;;8.35;100.00
13604;BME280;24578;48.264;11.436;2022-12-24T05:56:22;95909.75;;;8.32;100.00
13604;BME280;24578;48.264;11.436;2022-12-24T05:59:23;95902.84;;;8.32;100.00
13604;BME280;24578;48.264;11.436;2022-12-24T06:02:24;95914.53;;;8.25;100.00
13604;BME280;24578;48.264;11.436;2022-12-24T06:05:24;95924.19;;;8.21;100.00
13604;BME280;24578;48.264;11.436;2022-12-24T06:08:25;95925.63;;;8.26;100.00
13604;BME280;24578;48.264;11.436;2022-12-24T06:11:26;95941.41;;;8.34;100.00
13604;BME280;24578;48.264;11.436;2022-12-24T06:14:27;95956.78;;;8.22;100.00
13604;BME280;24578;48.264;11.436;2022-12-24T06:17:28;95946.16;;;8.27;100.00
13604;BME280;24578;48.264;11.436;2022-12-24T06:20:28;95942.66;;;8.15;100.00
13604;BME280;24578;48.264;11.436;2022-12-24T06:23:31;95931.72;;;8.12;100.00
13604;BME280;24578;48.264;11.436;2022-12-24T06:26:32;95938.13;;;8.06;100.00
13604;BME280;24578;48.264;11.436;2022-12-24T06:29:32;95940.06;;;8.02;100.00
13604;BME280;24578;48.264;11.436;2022-12-24T06:32:33;95926.16;;;8.05;100.00
13604;BME280;24578;48.264;11.436;2022-12-24T06:35:33;95932.97;;;8.06;100.00
13604;BME280;24578;48.264;11.436;2022-12-24T06:38:34;95934.81;;;8.04;100.00
13604;BME280;24578;48.264;11.436;2022-12-24T06:41:35;95941.72;;;8.03;100.00
13604;BME280;24578;48.264;11.436;2022-12-24T06:44:35;95945.03;;;7.92;100.00
13604;BME280;24578;48.264;11.436;2022-12-24T06:47:36;95942.22;;;7.83;100.00
13604;BME280;24578;48.264;11.436;2022-12-24T06:50:36;95951.78;;;7.81;100.00
13604;BME280;24578;48.264;11.436;2022-12-24T06:53:37;95950.78;;;7.83;100.00
13604;BME280;24578;48.264;11.436;2022-12-24T06:56:37;95953.66;;;7.78;100.00
13604;BME280;24578;48.264;11.436;2022-12-24T06:59:38;95955.59;;;7.75;100.00
13604;BME280;24578;48.264;11.436;2022-12-24T07:02:39;95954.38;;;7.81;100.00
13604;BME280;24578;48.264;11.436;2022-12-24T07:05:40;95943.44;;;7.77;100.00
13604;BME280;24578;48.264;11.436;2022-12-24T07:08:41;95954.91;;;7.86;100.00
13604;BME280;24578;48.264;11.436;2022-12-24T07:11:42;95961.72;;;7.87;100.00
13604;BME280;24578;48.264;11.436;2022-12-24T07:14:42;95962.94;;;7.81;100.00
13604;BME280;24578;48.264;11.436;2022-12-24T07:17:43;95964.41;;;7.85;100.00
13604;BME280;24578;48.264;11.436;2022-12-24T07:20:43;95981.59;;;7.85;100.00
13604;BME280;24578;48.264;11.436;2022-12-24T07:23:44;95978.94;;;7.99;100.00
13604;BME280;24578;48.264;11.436;2022-12-24T07:26:44;95983.69;;;7.92;100.00
13604;BME280;24578;48.264;11.436;2022-12-24T07:29:45;95992.56;;;8.01;100.00
13604;BME280;24578;48.264;11.436;2022-12-24T07:32:45;96005.88;;;8.08;100.00
13604;BME280;24578;48.264;11.436;2022-12-24T07:35:46;96008.56;;;8.06;100.00
13604;BME280;24578;48.264;11.436;2022-12-24T07:38:47;96009.91;;;8.12;100.00
13604;BME280;24578;48.264;11.436;2022-12-24T07:41:48;96008.38;;;8.10;100.00
13604;BME280;24578;48.264;11.436;2022-12-24T07:44:49;96023.53;;;8.14;100.00
13604;BME280;24578;48.264;11.436;2022-12-24T07:47:50;96024.75;;;8.21;100.00
13604;BME280;24578;48.264;11.436;2022-12-24T07:50:51;96022.19;;;8.34;100.00
13604;BME280;24578;48.264;11.436;2022-12-24T07:53:51;96027.97;;;8.38;100.00
13604;BME280;24578;48.264;11.436;2022-12-24T07:56:52;96025.91;;;8.30;100.00
13604;BME280;24578;48.264;11.436;2022-12-24T07:59:54;96032.41;;;8.23;100.00
13604;BME280;24578;48.264;11.436;2022-12-24T08:02:54;96041.47;;;8.29;100.00
13604;BME280;24578;48.264;11.436;2022-12-24T08:05:55;96044.69;;;8.32;100.00
13604;BME280;24578;48.264;11.436;2022-12-24T08:08:56;96048.00;;;8.47;100.00
13604;BME280;24578;48.264;11.436;2022-12-24T08:11:57;96050.38;;;8.50;100.00
13604;BME280;24578;48.264;11.436;2022-12-24T08:14:57;96061.03;;;8.59;100.00
13604;BME280;24578;48.264;11.436;2022-12-24T08:17:58;96064.13;;;8.51;100.00
13604;BME280;24578;48.264;11.436;2022-12-24T08:20:59;96070.44;;;8.60;100.00
13604;BME280;24578;48.264;11.436;2022-12-24T08:23:59;96073.63;;;8.63;100.00
13604;BME280;24578;48.264;11.436;2022-12-24T08:27:00;96085.47;;;8.66;100.00
13604;BME280;24578;48.264;11.436;2022-12-24T08:30:01;96088.69;;;8.70;100.00
13604;BME280;24578;48.264;11.436;2022-12-24T08:33:01;96076.94;;;8.78;100.00
13604;BME280;24578;48.264;11.436;2022-12-24T08:36:02;96081.47;;;8.88;100.00
13604;BME280;24578;48.264;11.436;2022-12-24T08:39:04;96078.03;;;9.00;100.00
13604;BME280;24578;48.264;11.436;2022-12-24T08:42:04;96089.41;;;8.97;100.00
13604;BME280;24578;48.264;11.436;2022-12-24T08:45:05;96087.22;;;9.04;100.00
13604;BME280;24578;48.264;11.436;2022-12-24T08:48:08;96083.06;;;9.14;100.00
13604;BME280;24578;48.264;11.436;2022-12-24T08:51:10;96097.44;;;9.06;100.00
13604;BME280;24578;48.264;11.436;2022-12-24T08:54:11;96105.44;;;9.03;100.00
13604;BME280;24578;48.264;11.436;2022-12-24T08:57:11;96108.53;;;8.95;100.00
13604;BME280;24578;48.264;11.436;2022-12-24T09:00:14;96116.69;;;9.02;100.00
13604;BME280;24578;48.264;11.436;2022-12-24T09:03:14;96119.22;;;9.27;100.00
13604;BME280;24578;48.264;11.436;2022-12-24T09:06:16;96127.78;;;9.41;100.00
13604;BME280;24578;48.264;11.436;2022-12-24T09:09:17;96132.94;;;9.41;100.00
13604;BME280;24578;48.264;11.436;2022-12-24T09:12:17;96139.50;;;9.58;100.00
13604;BME280;24578;48.264;11.436;2022-12-24T09:15:19;96149.00;;;9.70;100.00
13604;BME280;24578;48.264;11.436;2022-12-24T09:18:20;96149.81;;;9.71;100.00
13604;BME280;24578;48.264;11.436;2022-12-24T09:21:20;96164.66;;;9.93;100.00
13604;BME280;24578;48.264;11.436;2022-12-24T09:24:21;96173.88;;;9.84;100.00
13604;BME280;24578;48.264;11.436;2022-12-24T09:27:22;96164.47;;;9.83;100.00
13604;BME280;24578;48.264;11.436;2022-12-24T09:30:22;96172.56;;;9.79;100.00
13604;BME280;24578;48.264;11.436;2022-12-24T09:33:23;96164.06;;;9.77;100.00
13604;BME280;24578;48.264;11.436;2022-12-24T09:36:23;96163.31;;;9.87;100.00
13604;BME280;24578;48.264;11.436;2022-12-24T09:39:24;96167.78;;;9.85;100.00
13604;BME280;24578;48.264;11.436;2022-12-24T09:43:01;96162.41;;;9.75;100.00
13604;BME280;24578;48.264;11.436;2022-12-24T09:46:19;96168.13;;;9.68;100.00
13604;BME280;24578;48.264;11.436;2022-12-24T09:49:36;96161.22;;;9.68;100.00
13604;BME280;24578;48.264;11.436;2022-12-24T09:52:42;96167.19;;;9.69;100.00
13604;BME280;24578;48.264;11.436;2022-12-24T09:55:48;96172.22;;;9.46;100.00
13604;BME280;24578;48.264;11.436;2022-12-24T09:59:01;96175.94;;;9.42;100.00
13604;BME280;24578;48.264;11.436;2022-12-24T10:02:14;96161.88;;;9.46;100.00
13604;BME280;24578;48.264;11.436;2022-12-24T10:05:17;96166.84;;;9.36;100.00
13604;BME280;24578;48.264;11.436;2022-12-24T10:08:41;96161.91;;;10.08;100.00
13604;BME280;24578;48.264;11.436;2022-12-24T10:12:24;96160.75;;;11.19;100.00
13604;BME280;24578;48.264;11.436;2022-12-24T10:15:39;96164.06;;;11.32;100.00
13604;BME280;24578;48.264;11.436;2022-12-24T10:18:58;96158.41;;;11.61;100.00
13604;BME280;24578;48.264;11.436;2022-12-24T10:26:04;96166.06;;;11.74;97.19
13604;BME280;24578;48.264;11.436;2022-12-24T10:29:39;96152.81;;;13.07;91.12
13604;BME280;24578;48.264;11.436;2022-12-24T10:32:41;96146.81;;;14.69;82.22
13604;BME280;24578;48.264;11.436;2022-12-24T10:35:48;96146.00;;;15.53;78.26
13604;BME280;24578;48.264;11.436;2022-12-24T10:38:51;96143.41;;;16.09;70.86
13604;BME280;24578;48.264;11.436;2022-12-24T10:41:54;96138.44;;;16.16;68.67
13604;BME280;24578;48.264;11.436;2022-12-24T10:45:02;96138.72;;;15.57;65.80
13604;BME280;24578;48.264;11.436;2022-12-24T10:48:10;96146.38;;;15.31;64.78
13604;BME280;24578;48.264;11.436;2022-12-24T10:51:21;96125.94;;;15.26;66.73
13604;BME280;24578;48.264;11.436;2022-12-24T10:54:26;96141.31;;;15.95;65.33
13604;BME280;24578;48.264;11.436;2022-12-24T10:57:27;96134.59;;;16.65;62.29
13604;BME280;24578;48.264;11.436;2022-12-24T11:00:29;96141.16;;;16.69;60.90
13604;BME280;24578;48.264;11.436;2022-12-24T11:03:33;96146.19;;;16.88;59.26
13604;BME280;24578;48.264;11.436;2022-12-24T11:06:58;96145.81;;;16.57;59.78
13604;BME280;24578;48.264;11.436;2022-12-24T11:10:03;96154.41;;;16.49;59.81
13604;BME280;24578;48.264;11.436;2022-12-24T11:13:04;96150.34;;;16.01;60.36
13604;BME280;24578;48.264;11.436;2022-12-24T11:16:46;96151.44;;;15.98;60.71
13604;BME280;24578;48.264;11.436;2022-12-24T11:19:49;96154.28;;;15.01;63.65
13604;BME280;24578;48.264;11.436;2022-12-24T11:22:50;96168.78;;;15.14;63.38
13604;BME280;24578;48.264;11.436;2022-12-24T11:25:53;96163.69;;;15.22;63.84
13604;BME280;24578;48.264;11.436;2022-12-24T11:32:20;96164.03;;;14.40;66.45
13604;BME280;24578;48.264;11.436;2022-12-24T11:35:22;96161.00;;;14.06;69.50
13604;BME280;24578;48.264;11.436;2022-12-24T11:38:26;96158.22;;;13.97;69.41
13604;BME280;24578;48.264;11.436;2022-12-24T11:41:35;96153.91;;;13.67;71.08
13604;BME280;24578;48.264;11.436;2022-12-24T11:44:47;96154.13;;;13.54;74.53
13604;BME280;24578;48.264;11.436;2022-12-24T11:47:49;96143.03;;;13.52;73.78
13604;BME280;24578;48.264;11.436;2022-12-24T11:50:59;96150.78;;;13.73;72.07
13604;BME280;24578;48.264;11.436;2022-12-24T11:54:21;96137.44;;;13.57;71.60
13604;BME280;24578;48.264;11.436;2022-12-24T11:57:30;96135.97;;;13.33;75.92
13604;BME280;24578;48.264;11.436;2022-12-24T12:00:31;96138.88;;;12.87;77.42
13604;BME280;24578;48.264;11.436;2022-12-24T12:03:59;96142.22;;;12.03;83.52
13604;BME280;24578;48.264;11.436;2022-12-24T12:07:33;96150.84;;;11.12;94.69
13604;BME280;24578;48.264;11.436;2022-12-24T12:10:38;96140.50;;;11.12;96.74
13604;BME280;24578;48.264;11.436;2022-12-24T12:13:43;96132.59;;;11.03;97.75
13604;BME280;24578;48.264;11.436;2022-12-24T12:20:31;96137.28;;;10.86;98.96
13604;BME280;24578;48.264;11.436;2022-12-24T12:23:36;96139.59;;;10.66;100.00
13604;BME280;24578;48.264;11.436;2022-12-24T12:26:43;96143.06;;;10.54;100.00
13604;BME280;24578;48.264;11.436;2022-12-24T12:29:54;96149.16;;;10.42;100.00
13604;BME280;24578;48.264;11.436;2022-12-24T12:36:23;96146.97;;;10.60;100.00
13604;BME280;24578;48.264;11.436;2022-12-24T12:39:25;96146.22;;;10.82;100.00
13604;BME280;24578;48.264;11.436;2022-12-24T12:42:36;96149.28;;;10.99;100.00
13604;BME280;24578;48.264;11.436;2022-12-24T12:45:52;96156.28;;;11.21;100.00
13604;BME280;24578;48.264;11.436;2022-12-24T12:49:21;96158.03;;;11.66;99.12
13604;BME280;24578;48.264;11.436;2022-12-24T13:19:28;96179.03;;;11.40;97.50
13604;BME280;24578;48.264;11.436;2022-12-24T13:22:33;96180.31;;;11.46;98.24
13604;BME280;24578;48.264;11.436;2022-12-24T13:25:45;96184.53;;;11.12;100.00
13604;BME280;24578;48.264;11.436;2022-12-24T13:28:47;96188.63;;;11.04;100.00
13604;BME280;24578;48.264;11.436;2022-12-24T13:31:48;96185.59;;;11.10;99.26
13604;BME280;24578;48.264;11.436;2022-12-24T13:35:00;96188.91;;;11.12;99.05
13604;BME280;24578;48.264;11.436;2022-12-24T13:44:33;96194.47;;;10.83;100.00
13604;BME280;24578;48.264;11.436;2022-12-24T13:47:41;96206.94;;;10.78;100.00
13604;BME280;24578;48.264;11.436;2022-12-24T13:50:51;96205.63;;;10.72;100.00
13604;BME280;24578;48.264;11.436;2022-12-24T13:53:58;96214.88;;;10.63;100.00
13604;BME280;24578;48.264;11.436;2022-12-24T13:57:00;96227.50;;;10.44;100.00
13604;BME280;24578;48.264;11.436;2022-12-24T14:06:34;96211.66;;;9.74;100.00
13604;BME280;24578;48.264;11.436;2022-12-24T14:09:36;96205.47;;;9.51;100.00
13604;BME280;24578;48.264;11.436;2022-12-24T14:12:49;96221.00;;;9.51;100.00
13604;BME280;24578;48.264;11.436;2022-12-24T14:15:59;96219.13;;;9.53;100.00
13604;BME280;24578;48.264;11.436;2022-12-24T14:19:11;96217.16;;;9.43;100.00
13604;BME280;24578;48.264;11.436;2022-12-24T14:25:22;96219.13;;;9.40;100.00
13604;BME280;24578;48.264;11.436;2022-12-24T14:28:32;96227.38;;;9.19;100.00
13604;BME280;24578;48.264;11.436;2022-12-24T14:31:34;96228.94;;;9.35;100.00
13604;BME280;24578;48.264;11.436;2022-12-24T14:34:34;96229.66;;;9.11;100.00
13604;BME280;24578;48.264;11.436;2022-12-24T14:37:35;96231.44;;;9.10;100.00
13604;BME280;24578;48.264;11.436;2022-12-24T14:40:48;96239.38;;;9.07;100.00
13604;BME280;24578;48.264;11.436;2022-12-24T14:44:26;96244.94;;;9.01;100.00
13604;BME280;24578;48.264;11.436;2022-12-24T14:54:12;96256.44;;;8.82;100.00
13604;BME280;24578;48.264;11.436;2022-12-24T14:57:25;96249.63;;;8.81;100.00
13604;BME280;24578;48.264;11.436;2022-12-24T15:00:26;96245.41;;;8.80;100.00
13604;BME280;24578;48.264;11.436;2022-12-24T15:03:30;96245.69;;;8.76;100.00
13604;BME280;24578;48.264;11.436;2022-12-24T15:06:34;96256.19;;;8.60;100.00
13604;BME280;24578;48.264;11.436;2022-12-24T15:09:36;96239.56;;;8.51;100.00
13604;BME280;24578;48.264;11.436;2022-12-24T15:12:40;96238.72;;;8.50;100.00
13604;BME280;24578;48.264;11.436;2022-12-24T15:15:46;96243.81;;;8.37;100.00
13604;BME280;24578;48.264;11.436;2022-12-24T15:18:52;96241.78;;;8.28;100.00
13604;BME280;24578;48.264;11.436;2022-12-24T15:21:54;96241.41;;;8.34;100.00
13604;BME280;24578;48.264;11.436;2022-12-24T15:24:55;96232.56;;;8.38;100.00
13604;BME280;24578;48.264;11.436;2022-12-24T15:27:57;96238.03;;;8.19;100.00
13604;BME280;24578;48.264;11.436;2022-12-24T15:31:12;96248.00;;;8.11;100.00
13604;BME280;24578;48.264;11.436;2022-12-24T15:34:45;96251.03;;;8.18;100.00
13604;BME280;24578;48.264;11.436;2022-12-24T15:37:45;96248.00;;;8.11;100.00
13604;BME280;24578;48.264;11.436;2022-12-24T15:40:48;96248.97;;;7.96;100.00
13604;BME280;24578;48.264;11.436;2022-12-24T15:43:51;96254.22;;;7.94;100.00
13604;BME280;24578;48.264;11.436;2022-12-24T15:46:58;96254.38;;;8.05;100.00
13604;BME280;24578;48.264;11.436;2022-12-24T15:50:00;96259.81;;;7.86;100.00
13604;BME280;24578;48.264;11.436;2022-12-24T15:53:15;96264.16;;;7.86;100.00
13604;BME280;24578;48.264;11.436;2022-12-24T15:59:34;96259.56;;;7.91;100.00
13604;BME280;24578;48.264;11.436;2022-12-24T16:02:40;96256.97;;;7.91;100.00
13604;BME280;24578;48.264;11.436;2022-12-24T16:05:41;96265.97;;;7.98;100.00
13604;BME280;24578;48.264;11.436;2022-12-24T16:08:43;96268.66;;;7.97;100.00
13604;BME280;24578;48.264;11.436;2022-12-24T16:11:43;96258.72;;;7.76;100.00
13604;BME280;24578;48.264;11.436;2022-12-24T16:14:52;96258.09;;;7.72;100.00
13604;BME280;24578;48.264;11.436;2022-12-24T16:17:54;96263.06;;;7.75;100.00
13604;BME280;24578;48.264;11.436;2022-12-24T16:20:55;96262.59;;;7.83;100.00
13604;BME280;24578;48.264;11.436;2022-12-24T16:27:11;96275.75;;;7.78;100.00
13604;BME280;24578;48.264;11.436;2022-12-24T16:30:12;96275.84;;;7.77;100.00
13604;BME280;24578;48.264;11.436;2022-12-24T16:33:16;96261.69;;;7.84;100.00
13604;BME280;24578;48.264;11.436;2022-12-24T16:36:17;96265.19;;;7.83;100.00
13604;BME280;24578;48.264;11.436;2022-12-24T16:39:21;96261.59;;;7.71;100.00
13604;BME280;24578;48.264;11.436;2022-12-24T16:42:25;96272.44;;;7.91;100.00
13604;BME280;24578;48.264;11.436;2022-12-24T16:45:46;96279.16;;;7.65;100.00
13604;BME280;24578;48.264;11.436;2022-12-24T16:48:48;96285.88;;;7.67;100.00
13604;BME280;24578;48.264;11.436;2022-12-24T16:51:48;96284.78;;;7.71;100.00
13604;BME280;24578;48.264;11.436;2022-12-24T16:54:49;96287.63;;;7.67;100.00
13604;BME280;24578;48.264;11.436;2022-12-24T16:57:49;96292.13;;;7.63;100.00
13604;BME280;24578;48.264;11.436;2022-12-24T17:00:50;96299.31;;;7.58;100.00
13604;BME280;24578;48.264;11.436;2022-12-24T17:03:50;96300.31;;;7.55;100.00
13604;BME280;24578;48.264;11.436;2022-12-24T17:06:51;96303.09;;;7.67;100.00
13604;BME280;24578;48.264;11.436;2022-12-24T17:09:51;96299.03;;;7.62;100.00
13604;BME280;24578;48.264;11.436;2022-12-24T17:12:53;96308.44;;;7.64;100.00
13604;BME280;24578;48.264;11.436;2022-12-24T17:15:53;96298.94;;;7.64;100.00
13604;BME280;24578;48.264;11.436;2022-12-24T17:18:54;96294.44;;;7.68;100.00
13604;BME280;24578;48.264;11.436;2022-12-24T17:21:54;96295.19;;;7.70;100.00
13604;BME280;24578;48.264;11.436;2022-12-24T17:24:55;96299.41;;;7.71;100.00
13604;BME280;24578;48.264;11.436;2022-12-24T17:27:56;96292.69;;;7.68;100.00
13604;BME280;24578;48.264;11.436;2022-12-24T17:30:56;96299.78;;;7.65;100.00
13604;BME280;24578;48.264;11.436;2022-12-24T17:33:58;96303.38;;;7.62;100.00
13604;BME280;24578;48.264;11.436;2022-12-24T17:36:58;96314.78;;;7.58;100.00